sensor_id;sensor_type;location;lat;lon;timestamp;temperature;humidity
43963;DHT22;29622;45.534;9.242;2022-11-15T00:02:02;11.10;63.70
43963;DHT22;29622;45.534;9.242;2022-11-15T00:07:24;11.00;63.80
43963;DHT22;29622;45.534;9.242;2022-11-15T00:12:48;11.00;63.90
43963;DHT22;29622;45.534;9.242;2022-11-15T00:18:15;11.00;64.00
43963;DHT22;29622;45.534;9.242;2022-11-15T00:23:40;10.90;64.00
43963;DHT22;29622;45.534;9.242;2022-11-15T00:29:01;10.80;64.10
43963;DHT22;29622;45.534;9.242;2022-11-15T00:34:20;10.70;64.00
43963;DHT22;29622;45.534;9.242;2022-11-15T00:39:44;10.60;64.20
43963;DHT22;29622;45.534;9.242;2022-11-15T00:45:04;10.60;64.60
43963;DHT22;29622;45.534;9.242;2022-11-15T00:50:27;10.60;64.40
43963;DHT22;29622;45.534;9.242;2022-11-15T00:55:46;10.60;64.60
43963;DHT22;29622;45.534;9.242;2022-11-15T01:01:13;10.60;64.40
43963;DHT22;29622;45.534;9.242;2022-11-15T01:06:33;10.60;64.50
43963;DHT22;29622;45.534;9.242;2022-11-15T01:11:53;10.50;64.70
43963;DHT22;29622;45.534;9.242;2022-11-15T01:17:12;10.80;64.50
43963;DHT22;29622;45.534;9.242;2022-11-15T01:22:46;10.90;64.00
43963;DHT22;29622;45.534;9.242;2022-11-15T01:34:45;10.20;64.20
43963;DHT22;29622;45.534;9.242;2022-11-15T01:52:59;9.80;65.10
43963;DHT22;29622;45.534;9.242;2022-11-15T01:58:27;10.00;65.10
43963;DHT22;29622;45.534;9.242;2022-11-15T02:04:24;10.10;64.90
43963;DHT22;29622;45.534;9.242;2022-11-15T02:46:59;10.50;64.70
43963;DHT22;29622;45.534;9.242;2022-11-15T02:52:44;10.40;64.20
43963;DHT22;29622;45.534;9.242;2022-11-15T03:21:53;9.90;64.80
43963;DHT22;29622;45.534;9.242;2022-11-15T03:27:38;10.10;64.80
43963;DHT22;29622;45.534;9.242;2022-11-15T03:39:29;10.10;64.50
43963;DHT22;29622;45.534;9.242;2022-11-15T03:57:16;10.00;64.40
43963;DHT22;29622;45.534;9.242;2022-11-15T04:02:50;9.90;64.40
43963;DHT22;29622;45.534;9.242;2022-11-15T04:08:15;9.80;64.70
43963;DHT22;29622;45.534;9.242;2022-11-15T04:19:17;9.70;65.00
43963;DHT22;29622;45.534;9.242;2022-11-15T04:25:13;9.70;65.10
43963;DHT22;29622;45.534;9.242;2022-11-15T04:37:09;9.80;64.90
43963;DHT22;29622;45.534;9.242;2022-11-15T04:42:41;9.80;65.00
43963;DHT22;29622;45.534;9.242;2022-11-15T04:48:04;9.90;65.10
43963;DHT22;29622;45.534;9.242;2022-11-15T04:53:24;10.10;64.80
43963;DHT22;29622;45.534;9.242;2022-11-15T04:58:49;10.20;64.70
43963;DHT22;29622;45.534;9.242;2022-11-15T05:04:38;10.40;64.50
43963;DHT22;29622;45.534;9.242;2022-11-15T05:16:19;10.50;64.40
43963;DHT22;29622;45.534;9.242;2022-11-15T05:21:41;10.60;64.40
43963;DHT22;29622;45.534;9.242;2022-11-15T05:27:03;10.60;64.10
43963;DHT22;29622;45.534;9.242;2022-11-15T05:32:24;10.60;64.30
43963;DHT22;29622;45.534;9.242;2022-11-15T05:44:21;10.50;64.70
43963;DHT22;29622;45.534;9.242;2022-11-15T06:15:18;14.50;63.10
43963;DHT22;29622;45.534;9.242;2022-11-15T06:26:57;13.50;60.10
43963;DHT22;29622;45.534;9.242;2022-11-15T06:38:31;13.10;61.50
43963;DHT22;29622;45.534;9.242;2022-11-15T06:57:12;12.00;62.20
43963;DHT22;29622;45.534;9.242;2022-11-15T07:02:59;12.00;62.50
43963;DHT22;29622;45.534;9.242;2022-11-15T07:20:54;11.80;62.70
43963;DHT22;29622;45.534;9.242;2022-11-15T07:26:26;11.60;62.90
43963;DHT22;29622;45.534;9.242;2022-11-15T07:31:45;11.50;63.30
43963;DHT22;29622;45.534;9.242;2022-11-15T07:37:06;11.40;63.50
43963;DHT22;29622;45.534;9.242;2022-11-15T07:42:25;11.40;63.50
43963;DHT22;29622;45.534;9.242;2022-11-15T07:48:03;12.00;66.90
43963;DHT22;29622;45.534;9.242;2022-11-15T07:53:23;14.40;63.00
43963;DHT22;29622;45.534;9.242;2022-11-15T07:58:45;14.00;61.10
43963;DHT22;29622;45.534;9.242;2022-11-15T08:04:10;13.40;61.50
43963;DHT22;29622;45.534;9.242;2022-11-15T08:09:44;12.90;61.90
43963;DHT22;29622;45.534;9.242;2022-11-15T08:21:35;12.50;62.70
43963;DHT22;29622;45.534;9.242;2022-11-15T08:26:54;12.40;63.30
43963;DHT22;29622;45.534;9.242;2022-11-15T08:51:24;12.60;62.40
43963;DHT22;29622;45.534;9.242;2022-11-15T08:56:44;12.50;62.40
43963;DHT22;29622;45.534;9.242;2022-11-15T09:02:11;12.40;62.60
43963;DHT22;29622;45.534;9.242;2022-11-15T09:13:37;12.20;63.50
43963;DHT22;29622;45.534;9.242;2022-11-15T09:19:12;12.30;63.40
43963;DHT22;29622;45.534;9.242;2022-11-15T09:24:46;12.40;63.50
43963;DHT22;29622;45.534;9.242;2022-11-15T09:30:43;12.50;64.60
43963;DHT22;29622;45.534;9.242;2022-11-15T09:36:08;12.90;63.10
43963;DHT22;29622;45.534;9.242;2022-11-15T09:53:04;13.10;62.50
43963;DHT22;29622;45.534;9.242;2022-11-15T10:16:50;12.90;62.40
43963;DHT22;29622;45.534;9.242;2022-11-15T10:28:38;13.80;62.40
43963;DHT22;29622;45.534;9.242;2022-11-15T11:18:25;14.10;61.30
43963;DHT22;29622;45.534;9.242;2022-11-15T11:23:58;13.70;61.70
43963;DHT22;29622;45.534;9.242;2022-11-15T11:47:28;13.70;62.00
43963;DHT22;29622;45.534;9.242;2022-11-15T11:53:31;13.80;63.60
43963;DHT22;29622;45.534;9.242;2022-11-15T11:58:38;14.10;62.40
43963;DHT22;29622;45.534;9.242;2022-11-15T12:03:44;14.30;63.80
43963;DHT22;29622;45.534;9.242;2022-11-15T12:08:53;15.70;63.40
43963;DHT22;29622;45.534;9.242;2022-11-15T12:14:09;16.20;61.60
43963;DHT22;29622;45.534;9.242;2022-11-15T12:19:13;16.00;59.90
43963;DHT22;29622;45.534;9.242;2022-11-15T12:24:42;15.50;60.10
43963;DHT22;29622;45.534;9.242;2022-11-15T12:30:10;15.00;60.30
43963;DHT22;29622;45.534;9.242;2022-11-15T12:35:38;14.50;60.80
43963;DHT22;29622;45.534;9.242;2022-11-15T12:41:16;14.20;61.10
43963;DHT22;29622;45.534;9.242;2022-11-15T12:57:13;13.80;61.50
43963;DHT22;29622;45.534;9.242;2022-11-15T13:17:51;13.70;62.90
43963;DHT22;29622;45.534;9.242;2022-11-15T13:23:07;13.90;62.90
43963;DHT22;29622;45.534;9.242;2022-11-15T13:33:34;13.60;62.60
43963;DHT22;29622;45.534;9.242;2022-11-15T13:45:29;13.40;63.00
43963;DHT22;29622;45.534;9.242;2022-11-15T13:50:41;13.30;63.40
43963;DHT22;29622;45.534;9.242;2022-11-15T14:08:26;13.30;63.30
43963;DHT22;29622;45.534;9.242;2022-11-15T14:13:31;13.30;63.30
43963;DHT22;29622;45.534;9.242;2022-11-15T14:18:45;13.20;63.40
43963;DHT22;29622;45.534;9.242;2022-11-15T14:24:20;13.20;63.70
43963;DHT22;29622;45.534;9.242;2022-11-15T14:29:29;13.10;63.80
43963;DHT22;29622;45.534;9.242;2022-11-15T14:34:32;12.90;63.90
43963;DHT22;29622;45.534;9.242;2022-11-15T14:39:33;13.10;64.50
43963;DHT22;29622;45.534;9.242;2022-11-15T14:44:34;13.50;64.20
43963;DHT22;29622;45.534;9.242;2022-11-15T14:49:35;13.70;63.50
43963;DHT22;29622;45.534;9.242;2022-11-15T14:54:46;13.90;64.10
43963;DHT22;29622;45.534;9.242;2022-11-15T14:59:48;14.20;63.20
43963;DHT22;29622;45.534;9.242;2022-11-15T15:04:52;14.00;62.90
43963;DHT22;29622;45.534;9.242;2022-11-15T15:09:53;13.90;62.90
43963;DHT22;29622;45.534;9.242;2022-11-15T15:14:54;13.80;62.70
43963;DHT22;29622;45.534;9.242;2022-11-15T15:19:55;13.60;62.80
43963;DHT22;29622;45.534;9.242;2022-11-15T15:24:56;13.30;63.10
43963;DHT22;29622;45.534;9.242;2022-11-15T15:29:57;13.30;63.70
43963;DHT22;29622;45.534;9.242;2022-11-15T15:34:58;13.30;63.60
43963;DHT22;29622;45.534;9.242;2022-11-15T15:40:00;13.30;63.70
43963;DHT22;29622;45.534;9.242;2022-11-15T15:45:01;13.30;63.50
43963;DHT22;29622;45.534;9.242;2022-11-15T15:50:03;13.40;63.80
43963;DHT22;29622;45.534;9.242;2022-11-15T15:55:04;13.50;63.30
43963;DHT22;29622;45.534;9.242;2022-11-15T16:00:05;13.50;63.20
43963;DHT22;29622;45.534;9.242;2022-11-15T16:05:13;13.40;63.30
43963;DHT22;29622;45.534;9.242;2022-11-15T16:10:15;13.50;63.40
43963;DHT22;29622;45.534;9.242;2022-11-15T16:15:30;13.40;63.30
43963;DHT22;29622;45.534;9.242;2022-11-15T16:20:41;13.20;63.70
43963;DHT22;29622;45.534;9.242;2022-11-15T16:31:05;13.00;64.10
43963;DHT22;29622;45.534;9.242;2022-11-15T16:36:25;13.20;65.40
43963;DHT22;29622;45.534;9.242;2022-11-15T16:41:26;14.30;65.40
43963;DHT22;29622;45.534;9.242;2022-11-15T16:47:09;15.10;63.50
43963;DHT22;29622;45.534;9.242;2022-11-15T16:52:03;15.50;61.50
43963;DHT22;29622;45.534;9.242;2022-11-15T16:57:14;15.30;62.20
43963;DHT22;29622;45.534;9.242;2022-11-15T17:02:24;15.50;61.60
43963;DHT22;29622;45.534;9.242;2022-11-15T17:07:27;15.10;61.70
43963;DHT22;29622;45.534;9.242;2022-11-15T17:12:28;15.20;62.60
43963;DHT22;29622;45.534;9.242;2022-11-15T17:17:31;15.00;61.90
43963;DHT22;29622;45.534;9.242;2022-11-15T17:22:35;14.70;61.50
43963;DHT22;29622;45.534;9.242;2022-11-15T17:27:36;14.30;62.10
43963;DHT22;29622;45.534;9.242;2022-11-15T17:32:37;14.20;62.40
43963;DHT22;29622;45.534;9.242;2022-11-15T17:37:38;14.50;61.90
43963;DHT22;29622;45.534;9.242;2022-11-15T17:42:42;14.40;61.10
43963;DHT22;29622;45.534;9.242;2022-11-15T17:47:43;14.00;61.80
43963;DHT22;29622;45.534;9.242;2022-11-15T17:52:44;13.80;62.40
43963;DHT22;29622;45.534;9.242;2022-11-15T17:57:47;13.80;62.60
43963;DHT22;29622;45.534;9.242;2022-11-15T18:02:48;14.10;62.00
43963;DHT22;29622;45.534;9.242;2022-11-15T18:08:00;13.70;61.70
43963;DHT22;29622;45.534;9.242;2022-11-15T18:13:16;13.20;64.70
43963;DHT22;29622;45.534;9.242;2022-11-15T18:18:17;13.40;64.40
43963;DHT22;29622;45.534;9.242;2022-11-15T18:23:18;13.00;64.20
43963;DHT22;29622;45.534;9.242;2022-11-15T18:28:21;12.80;64.80
43963;DHT22;29622;45.534;9.242;2022-11-15T18:33:22;12.80;65.50
43963;DHT22;29622;45.534;9.242;2022-11-15T18:38:27;12.70;65.40
43963;DHT22;29622;45.534;9.242;2022-11-15T18:43:33;12.60;65.20
43963;DHT22;29622;45.534;9.242;2022-11-15T18:48:38;12.40;65.60
43963;DHT22;29622;45.534;9.242;2022-11-15T18:53:55;12.20;66.10
43963;DHT22;29622;45.534;9.242;2022-11-15T18:58:58;12.20;66.40
43963;DHT22;29622;45.534;9.242;2022-11-15T19:04:04;12.10;66.40
43963;DHT22;29622;45.534;9.242;2022-11-15T19:09:07;12.10;66.50
43963;DHT22;29622;45.534;9.242;2022-11-15T19:14:21;12.10;66.60
43963;DHT22;29622;45.534;9.242;2022-11-15T19:19:29;12.10;66.70
43963;DHT22;29622;45.534;9.242;2022-11-15T19:24:54;12.10;66.70
43963;DHT22;29622;45.534;9.242;2022-11-15T19:29:55;12.20;66.70
43963;DHT22;29622;45.534;9.242;2022-11-15T19:35:01;12.20;66.70
43963;DHT22;29622;45.534;9.242;2022-11-15T19:40:02;12.10;66.80
43963;DHT22;29622;45.534;9.242;2022-11-15T19:45:04;12.10;67.00
43963;DHT22;29622;45.534;9.242;2022-11-15T19:50:05;12.10;67.10
43963;DHT22;29622;45.534;9.242;2022-11-15T19:55:09;12.10;67.10
43963;DHT22;29622;45.534;9.242;2022-11-15T20:00:11;12.10;67.20
43963;DHT22;29622;45.534;9.242;2022-11-15T20:05:15;12.10;67.20
43963;DHT22;29622;45.534;9.242;2022-11-15T20:10:16;12.10;67.50
43963;DHT22;29622;45.534;9.242;2022-11-15T20:15:17;12.10;67.50
43963;DHT22;29622;45.534;9.242;2022-11-15T20:20:18;12.10;67.60
43963;DHT22;29622;45.534;9.242;2022-11-15T20:25:19;12.20;67.80
43963;DHT22;29622;45.534;9.242;2022-11-15T20:30:19;12.40;67.40
43963;DHT22;29622;45.534;9.242;2022-11-15T20:35:21;12.40;67.40
43963;DHT22;29622;45.534;9.242;2022-11-15T20:40:22;12.30;67.40
43963;DHT22;29622;45.534;9.242;2022-11-15T20:45:26;12.20;67.40
43963;DHT22;29622;45.534;9.242;2022-11-15T20:50:27;12.20;67.50
43963;DHT22;29622;45.534;9.242;2022-11-15T20:55:28;12.20;67.60
43963;DHT22;29622;45.534;9.242;2022-11-15T21:00:32;12.30;67.70
43963;DHT22;29622;45.534;9.242;2022-11-15T21:05:38;12.30;67.50
43963;DHT22;29622;45.534;9.242;2022-11-15T21:10:42;12.30;67.60
43963;DHT22;29622;45.534;9.242;2022-11-15T21:16:08;12.40;67.50
43963;DHT22;29622;45.534;9.242;2022-11-15T21:21:35;12.40;67.60
43963;DHT22;29622;45.534;9.242;2022-11-15T21:26:36;12.50;67.50
43963;DHT22;29622;45.534;9.242;2022-11-15T21:31:37;12.50;67.60
43963;DHT22;29622;45.534;9.242;2022-11-15T21:36:40;12.60;67.60
43963;DHT22;29622;45.534;9.242;2022-11-15T21:47:46;12.80;67.40
43963;DHT22;29622;45.534;9.242;2022-11-15T21:52:47;12.80;66.90
43963;DHT22;29622;45.534;9.242;2022-11-15T21:57:53;12.80;67.20
43963;DHT22;29622;45.534;9.242;2022-11-15T22:02:55;12.80;66.90
43963;DHT22;29622;45.534;9.242;2022-11-15T22:08:04;12.80;67.00
43963;DHT22;29622;45.534;9.242;2022-11-15T22:13:08;12.70;66.90
43963;DHT22;29622;45.534;9.242;2022-11-15T22:18:12;12.60;67.10
43963;DHT22;29622;45.534;9.242;2022-11-15T22:23:13;12.50;67.20
43963;DHT22;29622;45.534;9.242;2022-11-15T22:28:17;12.40;67.40
43963;DHT22;29622;45.534;9.242;2022-11-15T22:33:20;12.30;67.50
43963;DHT22;29622;45.534;9.242;2022-11-15T22:38:25;12.30;68.40
43963;DHT22;29622;45.534;9.242;2022-11-15T22:43:33;12.30;67.80
43963;DHT22;29622;45.534;9.242;2022-11-15T22:48:43;12.20;67.80
43963;DHT22;29622;45.534;9.242;2022-11-15T22:53:45;12.20;67.90
43963;DHT22;29622;45.534;9.242;2022-11-15T22:59:12;12.20;68.00
43963;DHT22;29622;45.534;9.242;2022-11-15T23:04:12;12.20;68.00
43963;DHT22;29622;45.534;9.242;2022-11-15T23:09:20;12.20;68.00
43963;DHT22;29622;45.534;9.242;2022-11-15T23:14:30;12.20;68.20
43963;DHT22;29622;45.534;9.242;2022-11-15T23:19:31;12.10;68.10
43963;DHT22;29622;45.534;9.242;2022-11-15T23:24:44;12.10;68.20
43963;DHT22;29622;45.534;9.242;2022-11-15T23:29:48;12.10;68.40
43963;DHT22;29622;45.534;9.242;2022-11-15T23:35:11;12.10;68.50
43963;DHT22;29622;45.534;9.242;2022-11-15T23:40:27;12.10;68.60
43963;DHT22;29622;45.534;9.242;2022-11-15T23:45:31;12.10;68.60
43963;DHT22;29622;45.534;9.242;2022-11-15T23:50:38;12.10;68.50
43963;DHT22;29622;45.534;9.242;2022-11-15T23:55:42;12.10;68.50
